Estación Meteorológica Peña el Pijo (Robertgarden) [ 09/24/17 17:50:49 CEST ]

Fecha Hora Presion(HPa) Temp (°C) Humedad % Rocio (°C) Viento ( m/s) Direccion Lluvia 1Hora(mm) Lluvia 24H(mm) LLuvia Total(mm)
2017-Sep-05 01:01:44 1014.500 14.6 66 8.3         1457.65
2017-Sep-05 02:01:52 1014.700 13.6 70 8.2         1457.65
2017-Sep-05 03:02:16 1014.400 12.9 73 8.2         1457.65
2017-Sep-05 04:02:01 1014.400 12.7 75 8.4         1457.65
2017-Sep-05 05:02:30 1014.400 12.3 77 8.4         1457.65
2017-Sep-05 06:02:12 1014.700 11.8 80 8.5         1457.65
2017-Sep-05 07:01:42 1015.100 11.4 81 8.3         1457.65
2017-Sep-05 08:02:03 1015.400 10.9 83 8.1         1457.65
2017-Sep-05 09:01:50 1015.900 13.3 85 10.8         1457.65
2017-Sep-05 10:01:49 1016.000 15.9 81 12.7         1457.65
2017-Sep-05 11:01:50 1016.200 22.9 71 17.4         1457.65
2017-Sep-05 12:01:46 1016.000 27.6 51 16.5         1457.65
2017-Sep-05 13:01:41 1015.500 31.4 36 14.4         1457.65
2017-Sep-05 14:01:29 1015.300 31.8 32 13.0         1457.65
2017-Sep-05 15:01:40 1014.700 31.8 34 13.9         1457.65
2017-Sep-05 16:01:42 1014.700 32.1 33 13.7         1457.65
2017-Sep-05 17:01:43 1014.400 31.9 33 13.5         1457.65
2017-Sep-05 18:01:43 1014.200 29.9 36 13.1 1.4 SW     1457.65
2017-Sep-05 19:01:42 1014.200 28.6 39 13.3         1457.65
2017-Sep-05 20:01:31 1014.300 25.4 44 12.2         1457.65
2017-Sep-05 21:01:47 1015.100 22.9 48 11.2         1457.65
2017-Sep-05 22:01:39 1015.900 20.5 54 10.8         1457.65
2017-Sep-05 23:01:34 1016.500 17.6 63 10.4         1457.65

Temperatura Máxima:32°    Temperatura Mínima:10°
Presión Máxima:1016.500 Hpa    Presión Mínima:1014.200 Hpa


Volver